McFarland, Kansas
Current Conditions -  °F | °C
As of 2:52 AM on Sunday 26 Oct 2014 (Local Time) from KMHK Reporting Station
Clear Clear  
Wind Chill: 57°   Ceiling: Unl
Heat Index: 57°   Visibility: 8mi
Dew Point: 56°   Wind: 0mph
Humidity: 96%   Direction: NA
Pressure: 29.9"   Gusts: NA
Location:  39.05°N, 96.24°W
Report Text: KMHK 260752Z AUTO 00000KT 8SM CLR 14/13 A2990 RMK AO2 SLP119 T01390133 TSNO
Loading
Personal Weather Stations






























Interactive Weather Map
Tropical Storm Tracking
New forecast layout! Learn more

10-Day Weather Forecast

Advertisements
Track Severe Weather on mobile